Time;durP1;ratioP1;P1;durP2;ratioP2;P2;SDS_P1;SDS_P2;PMS_P1;PMS_P2;Temp;Humidity;BMP_temperature;BMP_pressure;BME280_temperature;BME280_humidity;BME280_pressure;Samples;Min_cycle;Max_cycle;Signal;HPM_P1;HPM_P2
2023/03/25 00:01:07;;;;;;;0.00;0.00;;;;;;;5.36;71.05;98559.81;5046175;28;20133;-77
2023/03/25 00:03:37;;;;;;;0.00;0.00;;;;;;;5.31;71.13;98580.66;5020160;28;20505;-77
2023/03/25 00:06:06;;;;;;;0.00;0.00;;;;;;;5.27;70.85;98586.84;5012277;28;20736;-76
2023/03/25 00:08:35;;;;;;;0.00;0.00;;;;;;;5.23;71.02;98605.09;5027685;28;20049;-77
2023/03/25 00:11:04;;;;;;;0.00;0.00;;;;;;;5.17;70.74;98612.16;5036186;28;20112;-77
2023/03/25 00:13:31;;;;;;;0.00;0.00;;;;;;;5.12;70.45;98624.44;5044105;28;20052;-77
2023/03/25 00:15:59;;;;;;;0.00;0.00;;;;;;;5.10;70.60;98639.16;5046615;28;20044;-77
2023/03/25 00:18:32;;;;;;;0.00;0.00;;;;;;;5.07;70.59;98651.34;5040465;28;20049;-77
2023/03/25 00:21:01;;;;;;;0.57;0.00;;;;;;;5.02;70.44;98659.22;5043161;28;20096;-76
2023/03/25 00:23:28;;;;;;;0.00;0.00;;;;;;;4.96;70.19;98664.59;5042037;28;20468;-77
2023/03/25 00:25:59;;;;;;;0.00;0.00;;;;;;;4.93;70.35;98680.19;5043873;28;20055;-77
2023/03/25 00:28:27;;;;;;;0.00;0.00;;;;;;;4.89;70.40;98688.94;5045537;28;20049;-76
2023/03/25 00:30:54;;;;;;;0.00;0.00;;;;;;;4.84;70.52;98696.84;5042591;28;20052;-77
2023/03/25 00:33:21;;;;;;;0.00;0.00;;;;;;;4.81;70.46;98707.28;5039339;28;20049;-77
2023/03/25 00:35:53;;;;;;;0.00;0.00;;;;;;;4.78;70.15;98709.06;5042479;28;20460;-77
2023/03/25 00:38:20;;;;;;;0.00;0.00;;;;;;;4.74;70.22;98721.25;5044471;28;20072;-77
2023/03/25 00:40:47;;;;;;;0.00;0.00;;;;;;;4.69;70.24;98723.13;5043226;28;20052;-77
2023/03/25 00:43:15;;;;;;;0.00;0.00;;;;;;;4.67;70.18;98741.28;5040356;28;20049;-77
2023/03/25 00:45:42;;;;;;;0.00;0.00;;;;;;;4.64;70.36;98756.00;5042263;28;20049;-77
2023/03/25 00:48:09;;;;;;;0.00;0.00;;;;;;;4.60;70.09;98760.41;5043008;28;20065;-77
2023/03/25 00:50:36;;;;;;;0.00;0.00;;;;;;;4.55;70.25;98762.25;5041735;28;20056;-77
2023/03/25 00:53:03;;;;;;;0.38;0.00;;;;;;;4.54;70.13;98778.69;5041253;28;20056;-77
2023/03/25 00:55:29;;;;;;;0.00;0.00;;;;;;;4.51;70.32;98787.38;5043576;28;20098;-76
2023/03/25 00:57:56;;;;;;;0.00;0.00;;;;;;;4.46;70.29;98793.53;5043336;28;20505;-77
2023/03/25 01:00:24;;;;;;;0.00;0.00;;;;;;;4.41;70.34;98791.09;5041221;28;20055;-76
2023/03/25 01:02:53;;;;;;;0.00;0.00;;;;;;;4.38;69.98;98805.81;5041868;28;20048;-75
2023/03/25 01:05:21;;;;;;;0.00;0.00;;;;;;;4.35;70.07;98818.81;5042095;28;20049;-76
2023/03/25 01:07:50;;;;;;;0.00;0.00;;;;;;;4.30;70.07;98826.69;5039739;28;20038;-76
2023/03/25 01:10:17;;;;;;;0.00;0.00;;;;;;;4.24;69.98;98830.28;5053265;28;20041;-77
2023/03/25 01:12:44;;;;;;;0.00;0.00;;;;;;;4.21;69.98;98848.44;5048203;28;20049;-77
2023/03/25 01:15:12;;;;;;;0.00;0.00;;;;;;;4.16;70.29;98852.84;5045994;28;20474;-76
2023/03/25 01:17:40;;;;;;;1.65;0.00;;;;;;;4.12;70.04;98856.38;5049381;28;20068;-77
2023/03/25 01:20:08;;;;;;;0.00;0.00;;;;;;;4.10;70.15;98865.94;5045740;28;20049;-77
2023/03/25 01:22:35;;;;;;;0.00;0.00;;;;;;;4.05;69.87;98873.78;5047163;28;20045;-77
2023/03/25 01:25:02;;;;;;;0.00;0.00;;;;;;;4.03;69.83;98883.28;5046600;28;20059;-77
2023/03/25 01:27:30;;;;;;;0.00;0.00;;;;;;;3.93;70.30;98876.63;5055918;28;20053;-77
2023/03/25 01:29:57;;;;;;;0.00;0.00;;;;;;;3.97;70.18;98903.25;5044958;28;20059;-78
2023/03/25 01:32:24;;;;;;;0.00;0.00;;;;;;;3.94;70.13;98903.31;5050785;28;20390;-77
2023/03/25 01:34:52;;;;;;;0.00;0.00;;;;;;;3.91;70.15;98905.97;5054891;28;20084;-77
2023/03/25 01:37:19;;;;;;;0.00;0.00;;;;;;;3.88;70.14;98911.19;5046550;28;20049;-77
2023/03/25 01:39:46;;;;;;;0.00;0.00;;;;;;;3.83;70.33;98912.13;5046028;28;20110;-77
2023/03/25 01:42:13;;;;;;;0.00;0.00;;;;;;;3.80;70.09;98912.19;5054068;28;20044;-77
2023/03/25 01:45:13;;;;;;;0.00;0.00;;;;;;;3.79;70.15;98912.25;5052795;28;20560;-78
2023/03/25 01:47:40;;;;;;;0.00;0.00;;;;;;;3.74;70.34;98924.38;5046799;28;20045;-77
2023/03/25 01:50:13;;;;;;;0.22;0.00;;;;;;;3.73;70.46;98938.16;5045801;28;20049;-77
2023/03/25 01:52:45;;;;;;;0.00;0.00;;;;;;;3.68;70.22;98938.28;5048552;28;20045;-77
2023/03/25 01:55:12;;;;;;;0.00;0.00;;;;;;;3.63;69.97;98937.50;5050086;28;20059;-77
2023/03/25 01:57:45;;;;;;;0.00;0.00;;;;;;;3.63;70.21;98944.41;5046386;28;20508;-77
2023/03/25 02:00:14;;;;;;;0.00;0.00;;;;;;;3.58;70.40;98952.22;5046605;28;20045;-77
2023/03/25 02:02:44;;;;;;;0.00;0.00;;;;;;;3.56;70.61;98959.19;5047148;28;20080;-77
2023/03/25 02:05:20;;;;;;;0.00;0.00;;;;;;;3.52;70.42;98976.44;5049024;28;20059;-77
2023/03/25 02:07:49;;;;;;;0.00;0.00;;;;;;;3.50;70.37;98987.66;5045029;28;20053;-78
2023/03/25 02:10:17;;;;;;;0.00;0.00;;;;;;;3.47;70.20;98985.13;5043944;28;20040;-77
2023/03/25 02:12:45;;;;;;;0.00;0.00;;;;;;;3.45;70.42;98998.09;5051466;28;20056;-77
2023/03/25 02:15:15;;;;;;;0.03;0.00;;;;;;;3.41;70.61;98999.00;5049557;28;20128;-77
2023/03/25 02:17:58;;;;;;;0.03;0.00;;;;;;;3.39;70.57;99003.38;5045951;28;20433;-77
2023/03/25 02:21:01;;;;;;;0.30;0.10;;;;;;;3.37;70.64;99018.03;5049210;28;20045;-77
2023/03/25 02:24:08;;;;;;;0.28;0.10;;;;;;;3.32;70.70;99017.25;5042415;28;20080;-77
2023/03/25 02:27:14;;;;;;;0.10;0.03;;;;;;;3.28;70.35;99026.78;5045918;28;20056;-78
2023/03/25 02:30:16;;;;;;;0.10;0.05;;;;;;;3.25;70.55;99032.00;5025493;28;20057;-78
2023/03/25 02:33:01;;;;;;;0.10;0.10;;;;;;;3.23;70.55;99036.31;5031486;28;20056;-78
2023/03/25 02:35:42;;;;;;;1.48;0.10;;;;;;;3.21;70.58;99045.81;5048607;28;20045;-78
2023/03/25 02:38:35;;;;;;;0.10;0.10;;;;;;;3.16;70.20;99057.94;5049114;28;20052;-77
2023/03/25 02:41:08;;;;;;;1.75;0.10;;;;;;;3.12;70.51;99057.13;5042413;28;20041;-77
2023/03/25 02:43:41;;;;;;;0.10;0.10;;;;;;;3.09;70.10;99059.75;5042801;28;20659;-77
2023/03/25 02:46:12;;;;;;;0.95;0.13;;;;;;;3.05;70.26;99065.00;5051380;28;20056;-78
2023/03/25 02:48:43;;;;;;;0.55;0.10;;;;;;;3.06;70.13;99069.28;5044355;28;20060;-78
2023/03/25 02:51:14;;;;;;;0.10;0.10;;;;;;;3.02;70.46;99075.38;5047296;28;20045;-77
2023/03/25 02:53:46;;;;;;;1.38;0.20;;;;;;;2.98;70.32;99084.00;5052044;28;20060;-78
2023/03/25 02:56:16;;;;;;;1.05;0.10;;;;;;;2.95;70.33;99096.97;5042805;28;20072;-77
2023/03/25 02:58:45;;;;;;;1.00;0.20;;;;;;;2.92;70.51;99110.75;5040420;28;20057;-77
2023/03/25 03:01:13;;;;;;;0.38;0.20;;;;;;;2.89;70.44;99109.06;5040173;28;20115;-77
2023/03/25 03:03:40;;;;;;;0.20;0.13;;;;;;;2.87;70.09;99113.38;5040951;28;20049;-78
2023/03/25 03:06:14;;;;;;;1.23;0.10;;;;;;;2.84;70.40;99121.16;5042739;28;20045;-77
2023/03/25 03:08:53;;;;;;;0.75;0.10;;;;;;;2.82;70.03;99122.94;5037891;28;20481;-77
2023/03/25 03:11:25;;;;;;;0.20;0.20;;;;;;;2.81;70.04;99134.09;5047310;28;20044;-78
2023/03/25 03:14:17;;;;;;;0.30;0.20;;;;;;;2.79;69.92;99130.72;5049015;28;20052;-78
2023/03/25 03:16:50;;;;;;;0.55;0.20;;;;;;;2.78;70.18;99138.44;5051450;28;20079;-66
2023/03/25 03:19:37;;;;;;;0.40;0.40;;;;;;;2.76;70.53;99140.19;5039502;28;20053;-67
2023/03/25 03:22:14;;;;;;;1.00;0.20;;;;;;;2.75;70.41;99141.91;5038748;28;20053;-66
2023/03/25 03:24:47;;;;;;;0.20;0.20;;;;;;;2.74;69.80;99142.81;5038001;28;20060;-67
2023/03/25 03:27:24;;;;;;;0.40;0.17;;;;;;;2.73;70.21;99148.81;5032912;28;20532;-66
2023/03/25 03:29:55;;;;;;;0.57;0.20;;;;;;;2.69;70.36;99160.06;5036423;28;20046;-74
2023/03/25 03:32:29;;;;;;;0.20;0.17;;;;;;;2.68;70.59;99158.34;5042016;28;20045;-74
2023/03/25 03:35:01;;;;;;;1.52;0.20;;;;;;;2.65;69.96;99155.81;5040136;28;20055;-74
2023/03/25 03:37:38;;;;;;;0.30;0.10;;;;;;;2.64;70.32;99162.66;5042253;28;20049;-74
2023/03/25 03:40:10;;;;;;;0.30;0.25;;;;;;;2.63;70.31;99167.88;5036493;28;20059;-74
2023/03/25 03:42:41;;;;;;;0.68;0.25;;;;;;;2.60;69.74;99162.75;5037220;28;20514;-73
2023/03/25 03:45:12;;;;;;;0.50;0.30;;;;;;;2.59;69.58;99168.75;5036963;28;20053;-74
2023/03/25 03:47:43;;;;;;;1.42;0.30;;;;;;;2.57;69.79;99171.38;5040166;28;20041;-73
2023/03/25 03:50:14;;;;;;;0.57;0.55;;;;;;;2.55;70.10;99169.69;5038621;28;20425;-73
2023/03/25 03:52:45;;;;;;;0.40;0.10;;;;;;;2.52;70.14;99178.28;5032598;28;20052;-74
2023/03/25 03:55:20;;;;;;;2.15;0.20;;;;;;;2.50;69.77;99185.19;5039734;28;20053;-74
2023/03/25 03:57:53;;;;;;;0.75;0.20;;;;;;;2.46;69.49;99189.53;5036278;28;20053;-74
2023/03/25 04:00:24;;;;;;;2.38;0.20;;;;;;;2.42;69.37;99184.41;5036932;28;20417;-74
2023/03/25 04:02:55;;;;;;;0.68;0.20;;;;;;;2.43;69.90;99191.28;5039140;28;20056;-75
2023/03/25 04:05:29;;;;;;;0.98;0.20;;;;;;;2.41;69.08;99201.59;5042467;28;20056;-73
2023/03/25 04:08:01;;;;;;;1.38;0.30;;;;;;;2.39;69.08;99205.94;5038329;28;20053;-73
2023/03/25 04:10:38;;;;;;;0.93;0.22;;;;;;;2.36;69.12;99218.84;5036236;28;20049;-73
2023/03/25 04:13:09;;;;;;;0.30;0.20;;;;;;;2.34;69.17;99224.91;5038755;28;20037;-74
2023/03/25 04:15:36;;;;;;;1.48;0.30;;;;;;;2.34;69.18;99232.63;5039964;28;20497;-74
2023/03/25 04:18:03;;;;;;;0.20;0.20;;;;;;;2.30;69.81;99229.19;5038377;28;20533;-73
2023/03/25 04:20:35;;;;;;;0.20;0.20;;;;;;;2.31;69.47;99235.22;5037131;28;20053;-74
2023/03/25 04:23:03;;;;;;;1.58;0.30;;;;;;;2.30;69.95;99242.09;5038829;28;20666;-74
2023/03/25 04:25:32;;;;;;;1.88;0.20;;;;;;;2.28;68.97;99246.41;5037009;28;20056;-74
2023/03/25 04:27:59;;;;;;;1.20;0.20;;;;;;;2.28;69.49;99245.53;5041671;28;20059;-75
2023/03/25 04:30:27;;;;;;;1.50;0.40;;;;;;;2.27;69.24;99246.41;5037621;28;20041;-74
2023/03/25 04:32:54;;;;;;;0.55;0.30;;;;;;;2.27;69.30;99247.25;5040283;28;20054;-74
2023/03/25 04:35:21;;;;;;;0.30;0.30;;;;;;;2.28;69.08;99246.41;5041885;28;20045;-73
2023/03/25 04:37:48;;;;;;;3.50;0.40;;;;;;;2.27;69.01;99238.69;5038559;28;20060;-74
2023/03/25 04:40:17;;;;;;;0.20;0.20;;;;;;;2.25;69.53;99237.00;5039276;28;20049;-74
2023/03/25 04:42:45;;;;;;;0.85;0.20;;;;;;;2.25;69.34;99241.28;5040031;28;20045;-74
2023/03/25 04:45:15;;;;;;;0.30;0.17;;;;;;;2.24;69.58;99252.44;5036155;28;20568;-74
2023/03/25 04:47:43;;;;;;;0.85;0.40;;;;;;;2.23;69.63;99255.91;5038147;28;20069;-73
2023/03/25 04:50:19;;;;;;;0.50;0.30;;;;;;;2.22;69.58;99252.47;5038505;28;20052;-73
2023/03/25 04:52:45;;;;;;;;;;;;;;;2.21;69.23;99257.63;5040089;28;20107;-75
2023/03/25 04:55:16;;;;;;;0.50;0.20;;;;;;;2.20;69.08;99267.09;5033491;28;19921;-73
2023/03/25 04:57:46;;;;;;;1.25;0.60;;;;;;;2.20;69.37;99258.50;5037842;28;20132;-73
2023/03/25 05:00:14;;;;;;;0.63;0.30;;;;;;;2.19;69.30;99267.09;5037172;28;20053;-74
2023/03/25 05:02:45;;;;;;;2.95;0.20;;;;;;;2.17;69.86;99276.56;5043565;28;20494;-73
2023/03/25 05:05:17;;;;;;;0.40;0.28;;;;;;;2.18;69.09;99291.16;5037758;28;20095;-74
2023/03/25 05:07:48;;;;;;;0.50;0.30;;;;;;;2.17;69.28;99305.75;5040236;28;20049;-75
2023/03/25 05:10:15;;;;;;;2.67;0.30;;;;;;;2.17;69.40;99312.63;5041683;28;20055;-73
2023/03/25 05:12:42;;;;;;;0.40;0.28;;;;;;;2.16;69.57;99314.38;5038457;28;20045;-73
2023/03/25 05:15:12;;;;;;;1.50;0.20;;;;;;;2.17;69.34;99328.09;5041720;28;20045;-73
2023/03/25 05:17:39;;;;;;;0.35;0.30;;;;;;;2.16;69.57;99326.38;5041693;28;20053;-75
2023/03/25 05:20:09;;;;;;;0.40;0.30;;;;;;;2.17;69.43;99316.06;5040017;28;20140;-73
2023/03/25 05:22:36;;;;;;;0.38;0.30;;;;;;;2.15;69.89;99312.63;5037571;28;20133;-73
2023/03/25 05:25:05;;;;;;;0.80;0.30;;;;;;;2.18;69.40;99316.91;5041425;28;20052;-74
2023/03/25 05:27:32;;;;;;;0.20;0.20;;;;;;;2.16;69.87;99313.47;5043692;28;20136;-74
2023/03/25 05:30:00;;;;;;;0.40;0.30;;;;;;;2.17;70.08;99310.06;5041028;28;20049;-74
2023/03/25 05:32:32;;;;;;;0.52;0.22;;;;;;;2.16;69.38;99316.06;5039810;28;20052;-74
2023/03/25 05:34:59;;;;;;;5.13;0.40;;;;;;;2.15;69.97;99327.25;5040806;28;20118;-74
2023/03/25 05:37:25;;;;;;;2.60;0.30;;;;;;;2.15;69.88;99316.94;5040755;28;20049;-74
2023/03/25 05:39:52;;;;;;;1.30;0.43;;;;;;;2.14;69.13;99313.50;5038391;28;20095;-74
2023/03/25 05:42:21;;;;;;;3.55;0.30;;;;;;;2.12;69.61;99315.25;5038050;28;20041;-74
2023/03/25 05:44:50;;;;;;;1.85;0.40;;;;;;;2.15;69.43;99311.78;5032435;28;20132;-74
2023/03/25 05:47:20;;;;;;;1.65;0.35;;;;;;;2.15;69.47;99324.66;5031440;28;20083;-74
2023/03/25 05:49:49;;;;;;;3.13;0.30;;;;;;;2.17;70.09;99335.81;5038279;28;20044;-74
2023/03/25 05:52:17;;;;;;;1.77;0.32;;;;;;;2.16;69.89;99334.09;5036245;28;20048;-73
2023/03/25 05:54:44;;;;;;;3.47;0.40;;;;;;;2.15;69.75;99350.44;5039047;28;20080;-74
2023/03/25 05:57:11;;;;;;;1.55;0.30;;;;;;;2.15;69.43;99368.47;5039996;28;20060;-74
2023/03/25 05:59:39;;;;;;;0.93;0.25;;;;;;;2.14;69.50;99366.75;5037817;28;20045;-74
2023/03/25 06:02:07;;;;;;;3.63;0.32;;;;;;;2.13;69.44;99359.88;5038678;28;20060;-75
2023/03/25 06:04:38;;;;;;;2.03;0.50;;;;;;;2.14;69.55;99366.75;5034866;28;20066;-73
2023/03/25 06:07:12;;;;;;;0.85;0.30;;;;;;;2.13;69.91;99362.47;5041318;28;20501;-73
2023/03/25 06:09:44;;;;;;;1.90;0.35;;;;;;;2.14;69.35;99361.59;5038497;28;20081;-74
2023/03/25 06:12:12;;;;;;;2.92;0.80;;;;;;;2.15;69.69;99364.16;5039813;28;20045;-74
2023/03/25 06:14:41;;;;;;;0.65;0.30;;;;;;;2.16;69.74;99344.41;5037280;28;20049;-73
2023/03/25 06:17:10;;;;;;;2.15;0.45;;;;;;;2.14;69.11;99357.31;5038466;28;20099;-73
2023/03/25 06:19:38;;;;;;;1.52;1.08;;;;;;;2.13;69.56;99360.72;5038499;28;20455;-74
2023/03/25 06:22:08;;;;;;;1.48;0.40;;;;;;;2.13;69.99;99365.03;5028712;28;20799;-74
2023/03/25 06:24:37;;;;;;;0.47;0.30;;;;;;;2.15;69.49;99377.03;5033292;28;20064;-73
2023/03/25 06:27:05;;;;;;;1.25;0.43;;;;;;;2.15;69.20;99374.47;5040813;28;20041;-74
2023/03/25 06:29:33;;;;;;;1.20;0.80;;;;;;;2.15;69.84;99378.75;5038447;28;20492;-74
2023/03/25 06:32:00;;;;;;;1.10;0.35;;;;;;;2.16;70.06;99388.19;5036957;28;20041;-74
2023/03/25 06:34:26;;;;;;;0.85;0.30;;;;;;;2.16;69.42;99390.75;5037944;28;20052;-74
2023/03/25 06:36:53;;;;;;;2.05;0.50;;;;;;;2.16;69.33;99394.22;5035251;28;20673;-74
2023/03/25 06:39:20;;;;;;;1.45;0.40;;;;;;;2.16;69.89;99401.06;5041870;28;20049;-74
2023/03/25 06:41:49;;;;;;;0.50;0.35;;;;;;;2.17;69.88;99395.06;5039158;28;20051;-74
2023/03/25 06:44:16;;;;;;;1.27;0.50;;;;;;;2.17;69.31;99398.50;5040248;28;20457;-74
2023/03/25 06:46:43;;;;;;;1.38;0.40;;;;;;;2.18;68.91;99404.50;5038360;28;20122;-74
2023/03/25 06:49:10;;;;;;;0.63;0.30;;;;;;;2.18;69.50;99402.78;5038348;28;20516;-74
2023/03/25 06:51:36;;;;;;;0.85;0.30;;;;;;;2.20;68.86;99419.09;5042445;28;20478;-75
2023/03/25 06:54:03;;;;;;;1.08;0.40;;;;;;;2.21;69.24;99409.63;5038811;28;20045;-74
2023/03/25 06:56:30;;;;;;;2.03;0.55;;;;;;;2.21;69.66;99415.63;5037028;28;20060;-74
2023/03/25 06:58:58;;;;;;;1.67;0.40;;;;;;;2.21;68.92;99410.47;5041186;28;20821;-74
2023/03/25 07:01:25;;;;;;;1.77;0.43;;;;;;;2.19;68.97;99416.50;5040631;28;20063;-74
2023/03/25 07:03:52;;;;;;;2.35;0.50;;;;;;;2.20;69.08;99418.25;5039510;28;20710;-73
2023/03/25 07:06:21;;;;;;;1.50;0.45;;;;;;;2.19;69.45;99407.09;5039719;28;20049;-73
2023/03/25 07:08:49;;;;;;;2.67;0.50;;;;;;;2.16;69.03;99414.84;5037875;28;20044;-74
2023/03/25 07:11:18;;;;;;;0.75;0.40;;;;;;;2.16;68.67;99416.53;5039149;28;20509;-74
2023/03/25 07:13:45;;;;;;;1.33;0.65;;;;;;;2.15;69.41;99420.81;5032996;28;20205;-73
2023/03/25 07:16:13;;;;;;;0.52;0.30;;;;;;;2.15;68.92;99418.25;5037480;28;20059;-74
2023/03/25 07:18:40;;;;;;;1.75;0.68;;;;;;;2.15;68.99;99425.97;5039923;28;20517;-74
2023/03/25 07:21:07;;;;;;;2.53;0.40;;;;;;;2.15;69.05;99430.28;5040253;28;20044;-73
2023/03/25 07:23:34;;;;;;;0.88;0.38;;;;;;;2.17;68.63;99428.56;5033395;28;20048;-74
2023/03/25 07:26:01;;;;;;;0.73;0.40;;;;;;;2.17;69.16;99434.56;5038514;28;20053;-74
2023/03/25 07:28:28;;;;;;;0.60;0.30;;;;;;;2.19;69.29;99437.13;5039642;28;20059;-73
2023/03/25 07:30:55;;;;;;;1.13;0.40;;;;;;;2.18;69.14;99427.69;5033053;28;20850;-74
2023/03/25 07:33:23;;;;;;;1.08;0.40;;;;;;;2.18;68.91;99438.84;5038833;28;20080;-74
2023/03/25 07:35:50;;;;;;;2.47;0.40;;;;;;;2.16;68.85;99437.13;5037749;28;20075;-73
2023/03/25 07:38:17;;;;;;;0.93;0.60;;;;;;;2.17;68.85;99444.03;5039457;28;20041;-73
2023/03/25 07:40:43;;;;;;;2.03;0.43;;;;;;;2.17;69.02;99433.72;5037627;28;20056;-74
2023/03/25 07:43:10;;;;;;;2.35;0.32;;;;;;;2.18;68.76;99438.00;5039344;28;20046;-74
2023/03/25 07:45:37;;;;;;;1.35;0.50;;;;;;;2.18;68.75;99433.69;5037821;28;20694;-74
2023/03/25 07:48:04;;;;;;;3.80;1.13;;;;;;;2.18;69.48;99440.56;5035940;28;20040;-73
2023/03/25 07:50:32;;;;;;;1.60;0.40;;;;;;;2.18;69.23;99441.41;5039171;28;20053;-74
2023/03/25 07:52:59;;;;;;;1.95;0.43;;;;;;;2.18;69.11;99451.72;5041016;28;20541;-73
2023/03/25 07:55:26;;;;;;;2.03;0.30;;;;;;;2.17;68.82;99451.75;5037785;28;20084;-73
2023/03/25 07:57:53;;;;;;;1.15;0.50;;;;;;;2.18;68.98;99458.59;5039187;28;20056;-74
2023/03/25 08:00:20;;;;;;;2.47;0.40;;;;;;;2.20;69.51;99456.88;5037131;28;20045;-73
2023/03/25 08:02:47;;;;;;;1.75;0.40;;;;;;;2.19;68.86;99453.47;5041223;28;20045;-73
2023/03/25 08:05:19;;;;;;;0.80;0.40;;;;;;;2.19;69.10;99452.56;5030422;28;20724;-73
2023/03/25 08:07:48;;;;;;;1.50;0.40;;;;;;;2.18;68.89;99453.44;5038594;28;20041;-74
2023/03/25 08:10:15;;;;;;;0.65;0.50;;;;;;;2.18;68.82;99462.03;5036258;28;20045;-74
2023/03/25 08:12:42;;;;;;;2.80;0.40;;;;;;;2.17;69.48;99468.06;5040325;28;20060;-73
2023/03/25 08:15:10;;;;;;;1.58;0.45;;;;;;;2.18;69.29;99466.34;5036326;28;20056;-73
2023/03/25 08:17:37;;;;;;;1.48;0.40;;;;;;;2.19;68.72;99468.03;5038519;28;20080;-73
2023/03/25 08:20:04;;;;;;;1.27;0.40;;;;;;;2.18;68.81;99462.03;5037375;28;20562;-74
2023/03/25 08:22:31;;;;;;;6.82;0.50;;;;;;;2.18;69.12;99463.75;5038862;28;20045;-74
2023/03/25 08:25:00;;;;;;;3.80;0.40;;;;;;;2.17;69.13;99464.63;5039901;28;20053;-73
2023/03/25 08:27:27;;;;;;;2.63;0.30;;;;;;;2.18;69.16;99463.75;5038195;28;20493;-73
2023/03/25 08:29:56;;;;;;;1.17;0.35;;;;;;;2.14;69.57;99459.50;5037803;28;20052;-74
2023/03/25 08:32:26;;;;;;;1.05;0.40;;;;;;;2.15;69.43;99463.78;5036608;28;20827;-74
2023/03/25 08:34:52;;;;;;;1.20;0.40;;;;;;;2.14;69.10;99464.66;5044058;28;20087;-74
2023/03/25 08:37:20;;;;;;;1.13;0.40;;;;;;;2.11;69.57;99462.94;5042620;28;20044;-76
2023/03/25 08:39:49;;;;;;;0.60;0.50;;;;;;;2.09;69.41;99456.94;5041927;28;20099;-73
2023/03/25 08:42:17;;;;;;;1.85;0.40;;;;;;;2.08;69.54;99462.09;5045481;28;20073;-73
2023/03/25 08:44:44;;;;;;;2.65;0.73;;;;;;;2.08;69.51;99460.38;5045497;28;20703;-73
2023/03/25 08:47:11;;;;;;;3.10;1.13;;;;;;;2.10;69.54;99465.50;5045348;28;20045;-73
2023/03/25 08:49:38;;;;;;;3.65;0.50;;;;;;;2.12;70.22;99469.78;5038220;28;20049;-74
2023/03/25 08:52:07;;;;;;;0.75;0.57;;;;;;;2.15;69.90;99468.94;5042828;28;20048;-73
2023/03/25 08:54:34;;;;;;;1.48;0.50;;;;;;;2.15;69.65;99459.47;5040386;28;20049;-72
2023/03/25 08:57:01;;;;;;;1.63;0.75;;;;;;;2.10;70.20;99452.63;5039805;28;20045;-73
2023/03/25 08:59:30;;;;;;;4.70;0.40;;;;;;;2.05;70.35;99465.56;5042104;28;20055;-74
2023/03/25 09:01:56;;;;;;;0.90;0.50;;;;;;;2.01;69.65;99458.69;5040253;28;20045;-74
2023/03/25 09:04:23;;;;;;;1.23;0.40;;;;;;;1.99;69.72;99466.44;5037849;28;20045;-72
2023/03/25 09:06:50;;;;;;;3.75;0.65;;;;;;;1.97;70.18;99457.84;5037451;28;20053;-71
2023/03/25 09:09:18;;;;;;;1.75;0.32;;;;;;;1.96;69.91;99468.16;5041611;28;20061;-72
2023/03/25 09:11:44;;;;;;;3.30;0.57;;;;;;;1.93;70.26;99465.59;5041354;28;20045;-72
2023/03/25 09:14:11;;;;;;;2.13;1.13;;;;;;;1.88;70.43;99463.06;5037263;28;20497;-73
2023/03/25 09:16:39;;;;;;;1.10;0.50;;;;;;;1.83;69.85;99469.94;5038017;28;20486;-73
2023/03/25 09:19:07;;;;;;;2.25;0.60;;;;;;;1.84;70.02;99474.22;5039424;28;20048;-73
2023/03/25 09:21:33;;;;;;;3.33;0.40;;;;;;;1.83;70.86;99474.22;5039232;28;20057;-73
2023/03/25 09:24:00;;;;;;;2.70;0.70;;;;;;;1.84;71.01;99470.78;5038052;28;20038;-73
2023/03/25 09:26:27;;;;;;;2.20;0.40;;;;;;;1.84;71.11;99465.63;5035040;28;20053;-73
2023/03/25 09:28:55;;;;;;;0.60;0.40;;;;;;;1.87;70.96;99475.91;5039685;28;20045;-73
2023/03/25 09:31:22;;;;;;;1.60;0.30;;;;;;;1.91;70.54;99477.63;5039047;28;20115;-73
2023/03/25 09:33:50;;;;;;;0.63;0.30;;;;;;;1.94;70.79;99478.47;5039119;28;20045;-72
2023/03/25 09:36:17;;;;;;;0.50;0.30;;;;;;;1.96;71.13;99476.75;5040380;28;20501;-74
2023/03/25 09:38:44;;;;;;;0.95;0.40;;;;;;;1.97;70.71;99481.03;5039691;28;20509;-72
2023/03/25 09:41:30;;;;;;;0.93;0.40;;;;;;;2.00;70.88;99480.16;5043347;28;20145;-72
2023/03/25 09:44:05;;;;;;;1.42;0.40;;;;;;;2.02;70.75;99476.72;5042289;28;20049;-73
2023/03/25 09:46:32;;;;;;;2.75;0.40;;;;;;;2.06;70.86;99481.84;5040140;28;20485;-72
2023/03/25 09:49:01;;;;;;;0.50;0.30;;;;;;;2.07;71.18;99475.84;5039414;28;20041;-72
2023/03/25 09:51:31;;;;;;;1.00;0.25;;;;;;;2.08;70.78;99475.84;5040299;28;20045;-73
2023/03/25 09:54:04;;;;;;;3.53;0.40;;;;;;;2.12;71.06;99477.53;5046505;28;20052;-73
2023/03/25 09:56:35;;;;;;;2.90;0.45;;;;;;;2.12;71.54;99476.69;5037191;28;20050;-73
2023/03/25 09:59:07;;;;;;;1.45;0.40;;;;;;;2.10;71.49;99468.09;5040055;28;20046;-73
2023/03/25 10:01:41;;;;;;;1.20;0.32;;;;;;;2.10;70.83;99468.09;5036662;28;20145;-73
2023/03/25 10:04:44;;;;;;;0.60;0.38;;;;;;;2.09;71.06;99474.13;5039504;28;20083;-73
2023/03/25 10:07:23;;;;;;;0.82;0.40;;;;;;;2.06;71.23;99476.72;5042612;28;20053;-73
2023/03/25 10:10:00;;;;;;;8.68;0.80;;;;;;;2.02;71.32;99478.41;5040739;28;20060;-73
2023/03/25 10:12:41;;;;;;;2.22;0.40;;;;;;;1.99;70.96;99475.84;5041761;28;20045;-73
2023/03/25 10:15:21;;;;;;;0.60;0.40;;;;;;;2.01;71.49;99492.16;5044071;28;20064;-72
2023/03/25 10:18:01;;;;;;;1.63;0.40;;;;;;;2.02;71.41;99492.19;5043520;28;20048;-73
2023/03/25 10:20:43;;;;;;;1.17;0.63;;;;;;;2.04;71.31;99484.44;5038052;28;20139;-73
2023/03/25 10:23:21;;;;;;;0.93;0.47;;;;;;;2.05;70.92;99490.44;5034997;28;20049;-73
2023/03/25 10:25:55;;;;;;;2.72;0.40;;;;;;;2.06;71.63;99487.00;5038587;28;20095;-73
2023/03/25 10:28:27;;;;;;;1.00;0.50;;;;;;;2.08;71.54;99480.09;5039782;28;20046;-73
2023/03/25 10:30:55;;;;;;;0.65;0.40;;;;;;;2.07;71.39;99481.84;5040844;28;20049;-72
2023/03/25 10:33:28;;;;;;;0.65;0.40;;;;;;;2.10;71.41;99473.25;5037721;28;20045;-73
2023/03/25 10:35:59;;;;;;;0.88;0.40;;;;;;;2.10;71.43;99473.25;5036853;28;20559;-73
2023/03/25 10:38:29;;;;;;;2.88;0.50;;;;;;;2.11;71.02;99469.81;5041137;28;20042;-72
2023/03/25 10:41:05;;;;;;;1.05;0.60;;;;;;;2.11;71.35;99470.66;5041201;28;20143;-72
2023/03/25 10:43:36;;;;;;;1.17;0.38;;;;;;;2.09;72.05;99468.97;5039235;28;20053;-72
2023/03/25 10:46:13;;;;;;;1.63;0.63;;;;;;;2.06;71.44;99468.97;5038805;28;20033;-72
2023/03/25 10:48:40;;;;;;;3.50;0.43;;;;;;;2.06;71.30;99467.25;5039642;28;20049;-73
2023/03/25 10:51:11;;;;;;;0.77;0.35;;;;;;;2.07;71.67;99463.81;5040748;28;20077;-73
2023/03/25 10:53:39;;;;;;;0.38;0.30;;;;;;;2.08;71.56;99465.53;5037007;28;20045;-72
2023/03/25 10:56:10;;;;;;;0.40;0.30;;;;;;;2.08;71.06;99462.09;5032276;28;20903;-73
2023/03/25 10:58:40;;;;;;;2.75;0.30;;;;;;;2.08;71.91;99456.94;5026949;28;20056;-72
2023/03/25 11:01:11;;;;;;;1.30;0.40;;;;;;;2.07;71.28;99444.94;5038319;28;20045;-72
2023/03/25 11:03:40;;;;;;;1.83;0.32;;;;;;;2.04;71.09;99450.94;5037664;28;20052;-72
2023/03/25 11:06:21;;;;;;;1.20;0.40;;;;;;;2.01;71.18;99459.53;5043272;28;20468;-72
2023/03/25 11:08:58;;;;;;;3.90;2.15;;;;;;;1.96;71.49;99445.84;5040589;28;20064;-72
2023/03/25 11:11:32;;;;;;;1.00;0.45;;;;;;;1.93;71.26;99445.00;5039190;28;20103;-73
2023/03/25 11:13:59;;;;;;;2.55;0.77;;;;;;;1.90;71.68;99442.44;5041389;28;20053;-73
2023/03/25 11:16:27;;;;;;;2.10;0.95;;;;;;;1.86;71.32;99431.31;5039474;28;20084;-75
2023/03/25 11:18:54;;;;;;;1.75;0.73;;;;;;;1.84;71.33;99421.88;5040999;28;20525;-72
2023/03/25 11:21:22;;;;;;;1.13;0.50;;;;;;;1.78;71.70;99418.44;5040911;28;20068;-73
2023/03/25 11:23:51;;;;;;;1.25;0.50;;;;;;;1.76;71.91;99417.59;5036700;28;20056;-73
2023/03/25 11:26:21;;;;;;;0.93;0.43;;;;;;;1.73;71.92;99421.91;5039235;28;20140;-73
2023/03/25 11:28:50;;;;;;;0.70;0.40;;;;;;;1.71;71.48;99419.34;5036304;28;20059;-73
2023/03/25 11:31:19;;;;;;;1.50;0.60;;;;;;;1.70;71.61;99417.63;5043704;28;20123;-72
2023/03/25 11:34:00;;;;;;;4.13;0.70;;;;;;;1.67;71.77;99420.22;5040456;28;20049;-72
2023/03/25 11:36:30;;;;;;;1.70;0.50;;;;;;;1.65;71.85;99414.25;5039517;28;20048;-73
2023/03/25 11:39:00;;;;;;;1.25;0.40;;;;;;;1.65;71.56;99405.63;5034738;28;20053;-73
2023/03/25 11:41:32;;;;;;;2.28;0.60;;;;;;;1.63;71.66;99402.25;5039010;28;20071;-73
2023/03/25 11:43:59;;;;;;;1.90;0.55;;;;;;;1.62;72.29;99397.94;5038208;28;20049;-73
2023/03/25 11:46:27;;;;;;;1.10;0.43;;;;;;;1.62;72.13;99398.78;5041068;28;20045;-73
2023/03/25 11:48:53;;;;;;;1.75;0.60;;;;;;;1.62;72.56;99395.34;5036703;28;20055;-73
2023/03/25 11:51:24;;;;;;;2.75;0.50;;;;;;;1.62;71.88;99391.06;5039924;28;20516;-73
2023/03/25 11:53:57;;;;;;;2.25;0.60;;;;;;;1.62;71.82;99395.34;5038726;28;20095;-73
2023/03/25 11:56:30;;;;;;;3.80;0.60;;;;;;;1.61;72.44;99383.38;5036087;28;20552;-72